Terminal Aerodrome Forecast
Issued by NWS Albuquerque, NM

Home | Current Version | Previous Version | Text Only | Print | Product List | Glossary On
Versions: 1 2 3 4 5 6 7 8 9 10 11 12 13 14
000
FTUS45 KABQ 060500 RRA
TAFABQ
TAF
KABQ 060541Z 0606/0706 22007KT P6SM FEW040 BKN080
      TEMPO 0610/0614 BKN025
     FM061500 23008KT P6SM SCT040 SCT100
     FM061900 24012G21KT P6SM VCSH SCT070 SCT120
      TEMPO 0620/0624 VRB15G28KT BKN070
     FM070200 26007KT P6SM SCT080 SCT140=

USA.gov is the U.S. government's official web portal to all federal, state and local government web resources and services.